Time;durP1;ratioP1;P1;durP2;ratioP2;P2;SDS_P1;SDS_P2;PMS_P1;PMS_P2;Temp;Humidity;BMP_temperature;BMP_pressure;BME280_temperature;BME280_humidity;BME280_pressure;Samples;Min_cycle;Max_cycle;Signal;HPM_P1;HPM_P2
2022/10/11 00:02:05;;;;;;;19.23;4.53;;;7.40;99.90;;;;;;5053902;28;20040;-48
2022/10/11 00:04:31;;;;;;;19.15;4.13;;;7.40;99.90;;;;;;5058504;28;20105;-51
2022/10/11 00:06:57;;;;;;;20.05;4.32;;;7.40;99.90;;;;;;5059265;28;20037;-50
2022/10/11 00:09:22;;;;;;;15.85;3.63;;;7.30;99.90;;;;;;5060282;28;20032;-48
2022/10/11 00:11:48;;;;;;;14.45;3.83;;;7.40;99.90;;;;;;5062811;28;20032;-50
2022/10/11 00:14:14;;;;;;;14.45;3.60;;;7.40;99.90;;;;;;5056459;28;20501;-49
2022/10/11 00:16:43;;;;;;;20.58;4.35;;;7.40;99.90;;;;;;5055421;28;20664;-52
2022/10/11 00:19:10;;;;;;;15.77;4.10;;;7.30;99.90;;;;;;5057099;28;20051;-48
2022/10/11 00:21:35;;;;;;;15.00;4.47;;;7.30;99.90;;;;;;5058944;28;20040;-48
2022/10/11 00:24:01;;;;;;;15.50;3.67;;;7.30;99.90;;;;;;5059081;28;20043;-48
2022/10/11 00:26:27;;;;;;;15.73;4.07;;;7.20;99.90;;;;;;5055209;28;20040;-53
2022/10/11 00:28:56;;;;;;;19.10;4.10;;;;;;;;;;5055309;28;20099;-53
2022/10/11 00:31:22;;;;;;;16.80;3.67;;;7.30;99.90;;;;;;5059300;28;20045;-51
2022/10/11 00:33:48;;;;;;;22.92;3.47;;;7.10;99.90;;;;;;5058042;28;20045;-49
2022/10/11 00:36:16;;;;;;;17.42;3.47;;;7.20;99.90;;;;;;5057009;28;20055;-53
2022/10/11 00:38:42;;;;;;;17.88;4.18;;;7.30;99.90;;;;;;5059608;28;20041;-52
2022/10/11 00:41:08;;;;;;;12.93;3.70;;;7.30;99.90;;;;;;5062826;28;20036;-50
2022/10/11 00:43:34;;;;;;;17.42;4.07;;;7.30;99.90;;;;;;5059131;28;20406;-50
2022/10/11 00:46:28;;;;;;;12.68;3.88;;;7.40;99.90;;;;;;5059323;28;20040;-52
2022/10/11 00:49:11;;;;;;;12.32;3.63;;;7.10;99.90;;;;;;5055394;28;20040;-48
2022/10/11 00:51:50;;;;;;;14.70;3.53;;;7.20;99.90;;;;;;5056185;28;20063;-51
2022/10/11 00:54:19;;;;;;;14.07;3.45;;;7.20;99.90;;;;;;5057068;28;20047;-48
2022/10/11 00:56:48;;;;;;;14.40;3.58;;;7.00;99.90;;;;;;5062591;28;20045;-50
2022/10/11 00:59:20;;;;;;;12.57;4.30;;;6.90;99.90;;;;;;5059184;28;20051;-53
2022/10/11 01:01:46;;;;;;;11.70;3.30;;;7.00;99.90;;;;;;5064174;28;20150;-50
2022/10/11 01:04:11;;;;;;;19.55;4.25;;;7.10;99.90;;;;;;5056949;28;20136;-51
2022/10/11 01:06:39;;;;;;;13.52;4.55;;;6.80;99.90;;;;;;5060177;28;20525;-49
2022/10/11 01:09:05;;;;;;;17.40;3.78;;;6.80;99.90;;;;;;5064160;28;20062;-49
2022/10/11 01:11:31;;;;;;;9.68;3.08;;;6.80;99.90;;;;;;5057879;28;20041;-53
2022/10/11 01:14:25;;;;;;;14.68;4.22;;;6.80;99.90;;;;;;5057475;28;20083;-48
2022/10/11 01:16:53;;;;;;;10.13;3.20;;;6.80;99.90;;;;;;5058726;28;20111;-48
2022/10/11 01:19:40;;;;;;;16.05;3.45;;;6.80;99.90;;;;;;5057566;28;20041;-52
2022/10/11 01:22:31;;;;;;;16.35;3.90;;;6.80;99.90;;;;;;5057352;28;20098;-50
2022/10/11 01:25:18;;;;;;;11.07;4.10;;;6.80;99.90;;;;;;5057669;28;20098;-53
2022/10/11 01:28:09;;;;;;;13.07;4.18;;;6.80;99.90;;;;;;5057874;28;20049;-53
2022/10/11 01:30:37;;;;;;;14.55;4.20;;;6.90;99.90;;;;;;5058171;28;20053;-51
2022/10/11 01:33:39;;;;;;;14.52;4.47;;;6.80;99.90;;;;;;5056850;28;20041;-48
2022/10/11 01:36:26;;;;;;;12.73;3.90;;;6.80;99.90;;;;;;5055560;28;20392;-50
2022/10/11 01:39:22;;;;;;;16.27;4.03;;;6.80;99.90;;;;;;5059945;28;20044;-50
2022/10/11 01:41:53;;;;;;;11.88;4.10;;;6.80;99.90;;;;;;5053416;28;20137;-51
2022/10/11 01:44:19;;;;;;;14.75;3.80;;;6.80;99.90;;;;;;5053712;28;20067;-50
2022/10/11 01:46:45;;;;;;;17.42;4.05;;;6.90;99.90;;;;;;5059636;28;20040;-49
2022/10/11 01:49:11;;;;;;;17.63;4.93;;;6.90;99.90;;;;;;5050077;28;20059;-48
2022/10/11 01:51:45;;;;;;;19.45;4.70;;;6.80;99.90;;;;;;5054655;28;20131;-47
2022/10/11 01:54:38;;;;;;;15.15;4.10;;;6.80;99.90;;;;;;5054207;28;20040;-52
2022/10/11 01:57:23;;;;;;;19.40;4.40;;;6.70;99.90;;;;;;5055607;28;20047;-48
2022/10/11 02:00:02;;;;;;;12.43;4.05;;;6.70;99.90;;;;;;5059222;28;20041;-49
2022/10/11 02:02:58;;;;;;;14.07;3.65;;;6.70;99.90;;;;;;5056972;28;20050;-51
2022/10/11 02:06:05;;;;;;;11.27;3.50;;;6.60;99.90;;;;;;5058527;28;20139;-52
2022/10/11 02:08:51;;;;;;;11.50;3.70;;;6.70;99.90;;;;;;5057493;28;20041;-51
2022/10/11 02:11:30;;;;;;;15.75;3.53;;;6.60;99.90;;;;;;5060386;28;20406;-51
2022/10/11 02:13:57;;;;;;;15.45;3.90;;;6.60;99.90;;;;;;5058789;28;20029;-52
2022/10/11 02:16:30;;;;;;;15.55;4.25;;;6.70;99.90;;;;;;5057420;28;20048;-52
2022/10/11 02:18:56;;;;;;;13.43;4.00;;;6.70;99.90;;;;;;5056040;28;20053;-51
2022/10/11 02:21:22;;;;;;;15.20;4.30;;;6.60;99.90;;;;;;5055071;28;20040;-52
2022/10/11 02:24:01;;;;;;;15.82;4.50;;;6.60;99.90;;;;;;5056176;28;20036;-53
2022/10/11 02:26:31;;;;;;;19.08;4.38;;;6.50;99.90;;;;;;5057110;28;20098;-52
2022/10/11 02:29:00;;;;;;;11.30;3.40;;;;;;;;;;5056482;28;20502;-51
2022/10/11 02:31:26;;;;;;;;;;;6.50;99.90;;;;;;5056111;28;20119;-53
2022/10/11 02:34:08;;;;;;;11.50;4.18;;;6.40;99.90;;;;;;5053112;28;19927;-52
2022/10/11 02:36:51;;;;;;;10.80;3.55;;;6.50;99.90;;;;;;5057517;28;20044;-51
2022/10/11 02:39:43;;;;;;;13.88;4.07;;;6.40;99.90;;;;;;5055860;28;20048;-52
2022/10/11 02:42:25;;;;;;;13.85;3.55;;;6.40;99.90;;;;;;5055150;28;20045;-53
2022/10/11 02:44:59;;;;;;;15.20;4.53;;;6.40;99.90;;;;;;5057257;28;20098;-49
2022/10/11 02:47:27;;;;;;;17.00;4.30;;;6.40;99.90;;;;;;5057091;28;20110;-51
2022/10/11 02:49:53;;;;;;;18.98;4.72;;;6.40;99.90;;;;;;5052928;28;20056;-52
2022/10/11 02:52:19;;;;;;;14.27;3.97;;;6.40;99.90;;;;;;5053358;28;20040;-53
2022/10/11 02:54:45;;;;;;;16.67;3.92;;;6.40;99.90;;;;;;5052082;28;20076;-52
2022/10/11 02:57:10;;;;;;;11.63;3.63;;;6.30;99.90;;;;;;5056720;28;20045;-49
2022/10/11 02:59:36;;;;;;;17.35;4.07;;;6.40;99.90;;;;;;5057105;28;20406;-49
2022/10/11 03:02:02;;;;;;;19.08;5.13;;;6.40;99.90;;;;;;5052370;28;20079;-51
2022/10/11 03:04:28;;;;;;;15.15;4.50;;;6.40;99.90;;;;;;5056727;28;21554;-52
2022/10/11 03:06:53;;;;;;;14.30;4.28;;;6.30;99.90;;;;;;5053274;28;20043;-48
2022/10/11 03:09:19;;;;;;;12.02;4.25;;;6.30;99.90;;;;;;5054207;28;20041;-51
2022/10/11 03:11:45;;;;;;;15.77;3.92;;;6.30;99.90;;;;;;5050323;28;20053;-49
2022/10/11 03:14:10;;;;;;;14.30;4.38;;;6.30;99.90;;;;;;5048967;28;20440;-50
2022/10/11 03:16:36;;;;;;;15.25;4.63;;;6.30;99.90;;;;;;5052770;28;20052;-50
2022/10/11 03:19:02;;;;;;;12.85;3.72;;;6.30;99.90;;;;;;5056605;28;20099;-53
2022/10/11 03:21:28;;;;;;;16.27;3.90;;;6.20;99.90;;;;;;5056297;28;20033;-51
2022/10/11 03:23:53;;;;;;;16.95;4.68;;;6.20;99.90;;;;;;5057923;28;20040;-52
2022/10/11 03:26:19;;;;;;;14.05;3.42;;;6.20;99.90;;;;;;5054576;28;20047;-50
2022/10/11 03:28:45;;;;;;;17.02;4.28;;;6.20;99.90;;;;;;5058999;28;20048;-49
2022/10/11 03:31:10;;;;;;;12.68;4.50;;;6.10;99.90;;;;;;5053507;28;20481;-51
2022/10/11 03:33:36;;;;;;;8.88;3.65;;;6.10;99.90;;;;;;5054362;28;20049;-51
2022/10/11 03:36:02;;;;;;;17.60;4.63;;;6.00;99.90;;;;;;5052195;28;20094;-52
2022/10/11 03:38:27;;;;;;;14.10;3.67;;;6.00;99.90;;;;;;5053792;28;20051;-52
2022/10/11 03:40:53;;;;;;;12.85;3.53;;;6.00;99.90;;;;;;5052923;28;20076;-50
2022/10/11 03:43:19;;;;;;;15.70;4.47;;;6.00;99.90;;;;;;5053025;28;20486;-55
2022/10/11 03:45:45;;;;;;;17.45;4.47;;;6.00;99.90;;;;;;5057995;28;20522;-54
2022/10/11 03:48:11;;;;;;;13.23;3.78;;;5.90;99.90;;;;;;5056494;28;20047;-52
2022/10/11 03:50:37;;;;;;;14.55;4.28;;;5.90;99.90;;;;;;5056735;28;20051;-51
2022/10/11 03:53:04;;;;;;;13.13;3.85;;;5.90;99.90;;;;;;5059296;28;20708;-49
2022/10/11 03:55:30;;;;;;;13.15;3.55;;;5.90;99.90;;;;;;5061244;28;20075;-50
2022/10/11 03:57:56;;;;;;;17.60;4.53;;;5.90;99.90;;;;;;5060672;28;20108;-52
2022/10/11 04:00:21;;;;;;;15.60;4.45;;;5.90;99.90;;;;;;5059356;28;20119;-48
2022/10/11 04:02:47;;;;;;;14.82;3.75;;;5.90;99.90;;;;;;5059286;28;20048;-50
2022/10/11 04:05:13;;;;;;;12.57;3.63;;;5.80;99.90;;;;;;5056627;28;20048;-53
2022/10/11 04:07:40;;;;;;;10.52;3.47;;;5.80;99.90;;;;;;5053671;28;20036;-49
2022/10/11 04:10:06;;;;;;;12.95;3.80;;;5.80;99.90;;;;;;5056275;28;20083;-49
2022/10/11 04:12:32;;;;;;;15.30;4.10;;;5.90;99.90;;;;;;5059279;28;20139;-49
2022/10/11 04:14:57;;;;;;;13.90;3.47;;;5.80;99.90;;;;;;5059860;28;20128;-50
2022/10/11 04:17:23;;;;;;;14.30;3.72;;;5.80;99.90;;;;;;5055854;28;20055;-53
2022/10/11 04:19:49;;;;;;;10.52;3.63;;;5.70;99.90;;;;;;5052089;28;20047;-50
2022/10/11 04:22:14;;;;;;;15.05;3.88;;;5.80;99.90;;;;;;5055641;28;20029;-49
2022/10/11 04:24:40;;;;;;;16.83;5.07;;;5.80;99.90;;;;;;5059278;28;20117;-51
2022/10/11 04:27:06;;;;;;;20.83;4.72;;;5.80;99.90;;;;;;5056628;28;20033;-51
2022/10/11 04:29:32;;;;;;;11.98;3.58;;;5.80;99.90;;;;;;5060158;28;20532;-54
2022/10/11 04:31:57;;;;;;;14.93;4.30;;;5.80;99.90;;;;;;5058763;28;20045;-51
2022/10/11 04:34:23;;;;;;;15.18;4.07;;;5.70;99.90;;;;;;5058300;28;20091;-52
2022/10/11 04:36:48;;;;;;;18.48;4.45;;;5.70;99.90;;;;;;5055471;28;20557;-50
2022/10/11 04:39:14;;;;;;;13.80;3.83;;;5.70;99.90;;;;;;5060361;28;20036;-49
2022/10/11 04:41:43;;;;;;;12.70;4.10;;;5.70;99.90;;;;;;5054064;28;20045;-48
2022/10/11 04:44:08;;;;;;;9.73;3.63;;;5.80;99.90;;;;;;5061303;28;20033;-49
2022/10/11 04:46:34;;;;;;;11.77;4.28;;;5.80;99.90;;;;;;5057908;28;20051;-48
2022/10/11 04:48:59;;;;;;;15.35;4.28;;;5.70;99.90;;;;;;5057279;28;20131;-50
2022/10/11 04:51:26;;;;;;;15.15;3.85;;;5.70;99.90;;;;;;5059193;28;20041;-50
2022/10/11 04:53:52;;;;;;;10.48;3.35;;;5.70;99.90;;;;;;5056918;28;20123;-49
2022/10/11 04:56:17;;;;;;;13.40;4.13;;;5.60;99.90;;;;;;5058956;28;20143;-50
2022/10/11 04:58:46;;;;;;;11.98;3.58;;;5.70;99.90;;;;;;5057219;28;20040;-49
2022/10/11 05:01:12;;;;;;;12.52;4.22;;;5.70;99.90;;;;;;5059566;28;20044;-48
2022/10/11 05:03:38;;;;;;;12.05;3.58;;;5.70;99.90;;;;;;5057017;28;20056;-50
2022/10/11 05:06:06;;;;;;;11.40;3.55;;;;;;;;;;5059930;28;20039;-49
2022/10/11 05:08:32;;;;;;;14.30;4.00;;;5.60;99.90;;;;;;5055926;28;20491;-52
2022/10/11 05:11:05;;;;;;;11.05;3.70;;;5.60;99.90;;;;;;5062336;28;20044;-50
2022/10/11 05:13:32;;;;;;;10.77;3.50;;;5.60;99.90;;;;;;5055730;28;20476;-50
2022/10/11 05:15:58;;;;;;;11.95;3.42;;;5.50;99.90;;;;;;5054455;28;20036;-48
2022/10/11 05:18:24;;;;;;;14.80;3.83;;;5.50;99.90;;;;;;5055495;28;20043;-52
2022/10/11 05:20:59;;;;;;;10.25;3.50;;;5.50;99.90;;;;;;5056931;28;20036;-50
2022/10/11 05:23:24;;;;;;;11.07;3.60;;;5.50;99.90;;;;;;5050523;28;20068;-51
2022/10/11 05:25:50;;;;;;;10.05;3.45;;;5.40;99.90;;;;;;5057044;28;20217;-48
2022/10/11 05:28:15;;;;;;;12.57;3.55;;;5.50;99.90;;;;;;5056649;28;20044;-52
2022/10/11 05:30:41;;;;;;;9.05;2.95;;;5.50;99.90;;;;;;5055648;28;20268;-52
2022/10/11 05:33:10;;;;;;;10.05;3.67;;;5.50;99.90;;;;;;5058021;28;20048;-48
2022/10/11 05:35:35;;;;;;;8.48;3.08;;;5.50;99.90;;;;;;5057210;28;20045;-51
2022/10/11 05:38:01;;;;;;;7.63;2.90;;;5.40;99.90;;;;;;5054366;28;20032;-53
2022/10/11 05:40:27;;;;;;;11.80;3.63;;;5.50;99.90;;;;;;5074531;28;20037;-51
2022/10/11 05:42:52;;;;;;;12.13;3.70;;;5.50;99.90;;;;;;5053246;28;20076;-51
2022/10/11 05:45:18;;;;;;;9.68;3.75;;;5.50;99.90;;;;;;5055660;28;20058;-52
2022/10/11 05:47:43;;;;;;;12.27;3.85;;;5.50;99.90;;;;;;5053484;28;20069;-51
2022/10/11 05:50:09;;;;;;;11.80;3.85;;;5.50;99.90;;;;;;5054225;28;20513;-55
2022/10/11 05:52:35;;;;;;;11.68;4.05;;;5.50;99.90;;;;;;5055491;28;20041;-52
2022/10/11 05:55:02;;;;;;;14.48;4.57;;;5.50;99.90;;;;;;5059490;28;20041;-49
2022/10/11 05:57:27;;;;;;;9.75;3.70;;;5.50;99.90;;;;;;5061003;28;20370;-51
2022/10/11 05:59:53;;;;;;;10.82;3.60;;;5.40;99.90;;;;;;5055092;28;20879;-49
2022/10/11 06:02:19;;;;;;;9.38;3.40;;;5.50;99.90;;;;;;5054249;28;20186;-52
2022/10/11 06:04:45;;;;;;;7.47;3.10;;;;;;;;;;5056627;28;20547;-54
2022/10/11 06:07:10;;;;;;;14.30;3.80;;;5.50;99.90;;;;;;5053703;28;20052;-50
2022/10/11 06:09:36;;;;;;;7.05;3.30;;;5.50;99.90;;;;;;5056568;28;20041;-48
2022/10/11 06:12:02;;;;;;;8.85;4.00;;;5.50;99.90;;;;;;5056414;28;20037;-49
2022/10/11 06:14:28;;;;;;;11.73;3.72;;;5.50;99.90;;;;;;5055130;28;20161;-51
2022/10/11 06:16:53;;;;;;;12.55;3.88;;;5.50;99.90;;;;;;5054766;28;20040;-48
2022/10/11 06:19:19;;;;;;;12.60;4.57;;;5.50;99.90;;;;;;5058845;28;20032;-48
2022/10/11 06:21:45;;;;;;;14.07;3.90;;;5.60;99.90;;;;;;5054051;28;20553;-48
2022/10/11 06:24:11;;;;;;;7.32;3.60;;;5.60;99.90;;;;;;5056442;28;20063;-52
2022/10/11 06:26:37;;;;;;;17.10;4.03;;;5.60;99.90;;;;;;5054280;28;20491;-51
2022/10/11 06:29:03;;;;;;;12.52;4.00;;;5.60;99.90;;;;;;5054319;28;20402;-53
2022/10/11 06:31:29;;;;;;;14.60;4.00;;;5.60;99.90;;;;;;5054513;28;20449;-55
2022/10/11 06:33:55;;;;;;;10.32;4.35;;;;;;;;;;5056124;28;20086;-53
2022/10/11 06:36:20;;;;;;;14.48;4.68;;;5.70;99.90;;;;;;5058671;28;20640;-55
2022/10/11 06:38:46;;;;;;;13.75;4.38;;;5.80;99.90;;;;;;5056148;28;20045;-53
2022/10/11 06:41:16;;;;;;;12.30;4.45;;;5.80;99.90;;;;;;5052635;28;20039;-54
2022/10/11 06:43:42;;;;;;;9.15;3.60;;;5.90;99.90;;;;;;5051252;28;20399;-54
2022/10/11 06:46:08;;;;;;;12.38;4.57;;;6.00;99.90;;;;;;5053291;28;20076;-50
2022/10/11 06:48:34;;;;;;;10.23;4.20;;;6.00;99.90;;;;;;5053951;28;20090;-50
2022/10/11 06:51:00;;;;;;;10.23;4.57;;;6.10;99.90;;;;;;5051675;28;20037;-51
2022/10/11 06:53:27;;;;;;;13.05;4.80;;;6.20;99.90;;;;;;5059790;28;20032;-52
2022/10/11 06:55:52;;;;;;;9.73;3.63;;;6.20;99.90;;;;;;5052703;28;20475;-49
2022/10/11 06:58:18;;;;;;;10.85;4.82;;;6.20;99.90;;;;;;5059638;28;20086;-50
2022/10/11 07:00:43;;;;;;;11.52;4.28;;;6.30;99.90;;;;;;5050998;28;20036;-49
2022/10/11 07:03:09;;;;;;;11.35;4.35;;;6.40;99.90;;;;;;5058914;28;20052;-50
2022/10/11 07:05:35;;;;;;;14.88;4.72;;;6.40;99.90;;;;;;5065600;28;20499;-52
2022/10/11 07:08:01;;;;;;;13.60;4.60;;;6.50;99.90;;;;;;5063192;28;20107;-49
2022/10/11 07:10:26;;;;;;;12.13;3.90;;;6.60;99.90;;;;;;5062828;28;20059;-51
2022/10/11 07:12:52;;;;;;;12.05;4.40;;;6.60;99.90;;;;;;5062784;28;20041;-52
2022/10/11 07:15:18;;;;;;;15.73;4.43;;;6.70;99.90;;;;;;5065056;28;20040;-54
2022/10/11 07:17:44;;;;;;;11.70;4.55;;;6.80;99.90;;;;;;5061706;28;20465;-51
2022/10/11 07:20:10;;;;;;;27.98;8.00;;;6.90;99.90;;;;;;5063000;28;20451;-52
2022/10/11 07:22:36;;;;;;;20.90;4.72;;;7.00;99.90;;;;;;5061173;28;20490;-49
2022/10/11 07:25:02;;;;;;;12.02;4.47;;;7.10;99.90;;;;;;5068451;28;20041;-48
2022/10/11 07:27:27;;;;;;;14.40;4.28;;;7.10;99.90;;;;;;5062791;28;20127;-48
2022/10/11 07:29:53;;;;;;;12.23;4.50;;;7.20;99.90;;;;;;5058765;28;20033;-50
2022/10/11 07:32:18;;;;;;;8.48;4.50;;;7.30;99.90;;;;;;5062113;28;20044;-49
2022/10/11 07:34:44;;;;;;;12.95;5.00;;;7.40;99.90;;;;;;5062222;28;20502;-48
2022/10/11 07:37:10;;;;;;;10.77;4.68;;;7.40;99.90;;;;;;5056002;28;20047;-47
2022/10/11 07:39:36;;;;;;;10.90;4.13;;;7.40;99.90;;;;;;5056900;28;20139;-53
2022/10/11 07:42:01;;;;;;;11.38;4.00;;;7.50;99.90;;;;;;5054310;28;20042;-49
2022/10/11 07:44:27;;;;;;;10.02;4.30;;;7.60;99.90;;;;;;5059741;28;20033;-52
2022/10/11 07:46:52;;;;;;;11.57;4.57;;;7.60;99.90;;;;;;5065012;28;20090;-50
2022/10/11 07:49:18;;;;;;;12.25;3.63;;;7.70;99.90;;;;;;5067281;28;20068;-51
2022/10/11 07:51:44;;;;;;;10.30;3.97;;;7.80;99.90;;;;;;5065650;28;20044;-52
2022/10/11 07:54:09;;;;;;;12.65;4.35;;;7.80;99.90;;;;;;5065685;28;20032;-49
2022/10/11 07:56:36;;;;;;;11.85;4.00;;;7.80;99.90;;;;;;5065679;28;20047;-48
2022/10/11 07:59:02;;;;;;;10.20;3.85;;;7.80;99.90;;;;;;5061379;28;20367;-49
2022/10/11 08:01:29;;;;;;;14.48;5.10;;;7.90;99.90;;;;;;5057529;28;20114;-52
2022/10/11 08:03:58;;;;;;;11.45;3.70;;;7.90;99.90;;;;;;5061037;28;20049;-50
2022/10/11 08:06:28;;;;;;;15.93;3.85;;;7.90;99.90;;;;;;5062391;28;20086;-49
2022/10/11 08:08:55;;;;;;;9.80;3.80;;;7.90;99.90;;;;;;5069115;28;20048;-48
2022/10/11 08:11:27;;;;;;;8.53;3.40;;;8.00;99.90;;;;;;5063170;28;20098;-48
2022/10/11 08:13:54;;;;;;;15.32;4.13;;;8.10;99.90;;;;;;5068603;28;20040;-52
2022/10/11 08:16:20;;;;;;;12.82;4.40;;;8.20;99.90;;;;;;5061964;28;20071;-50
2022/10/11 08:18:46;;;;;;;30.45;4.97;;;8.40;99.90;;;;;;5063988;28;20072;-52
2022/10/11 08:21:14;;;;;;;35.95;5.60;;;8.50;99.90;;;;;;5057840;28;20079;-53
2022/10/11 08:23:40;;;;;;;25.58;4.22;;;8.70;99.90;;;;;;5071153;28;20384;-51
2022/10/11 08:26:05;;;;;;;23.67;4.32;;;8.90;99.90;;;;;;5067377;28;20049;-49
2022/10/11 08:28:31;;;;;;;15.23;3.55;;;9.00;99.90;;;;;;5071790;28;20040;-48
2022/10/11 08:30:57;;;;;;;15.38;4.25;;;9.30;99.90;;;;;;5074486;28;20051;-51
2022/10/11 08:33:24;;;;;;;14.82;3.92;;;9.40;99.90;;;;;;5073330;28;20041;-50
2022/10/11 08:35:51;;;;;;;10.87;3.10;;;9.50;99.90;;;;;;5071031;28;20045;-51
2022/10/11 08:38:18;;;;;;;30.55;3.83;;;9.60;99.90;;;;;;5069370;28;20281;-49
2022/10/11 08:40:55;;;;;;;21.37;3.70;;;9.70;99.90;;;;;;5075047;28;20048;-50
2022/10/11 08:43:39;;;;;;;13.23;3.83;;;9.90;99.90;;;;;;5072664;28;20037;-52
2022/10/11 08:46:06;;;;;;;24.30;3.97;;;10.00;99.90;;;;;;5063676;28;20060;-50
2022/10/11 08:48:37;;;;;;;15.82;3.70;;;10.30;99.90;;;;;;5064561;28;20041;-49
2022/10/11 08:51:14;;;;;;;13.23;3.72;;;10.30;99.90;;;;;;5073872;28;20036;-50
2022/10/11 08:53:50;;;;;;;13.30;3.45;;;10.50;99.90;;;;;;5071200;28;20069;-54
2022/10/11 08:56:16;;;;;;;16.67;3.72;;;10.60;99.90;;;;;;5071923;28;20041;-53
2022/10/11 08:58:48;;;;;;;10.20;3.22;;;10.80;99.90;;;;;;5074465;28;20076;-48
2022/10/11 09:01:19;;;;;;;24.88;3.75;;;10.90;99.90;;;;;;5072339;28;20055;-51
2022/10/11 09:03:47;;;;;;;29.25;4.05;;;11.00;99.90;;;;;;5067271;28;20042;-49
2022/10/11 09:06:30;;;;;;;18.83;4.00;;;11.10;99.90;;;;;;5064154;28;20043;-49
2022/10/11 09:09:05;;;;;;;14.38;3.55;;;11.10;99.90;;;;;;5073236;28;20181;-52
2022/10/11 09:11:50;;;;;;;11.95;3.63;;;11.20;99.90;;;;;;5070646;28;20683;-51
2022/10/11 09:14:51;;;;;;;12.75;3.55;;;11.30;99.90;;;;;;5062661;28;20040;-49
2022/10/11 09:17:46;;;;;;;21.88;4.10;;;11.40;99.90;;;;;;5067451;28;20434;-50
2022/10/11 09:20:30;;;;;;;26.45;3.80;;;11.40;99.90;;;;;;5070097;28;20114;-52
2022/10/11 09:23:33;;;;;;;16.27;2.88;;;11.50;99.90;;;;;;5063386;28;20052;-50
2022/10/11 09:26:08;;;;;;;19.13;3.05;;;11.60;99.90;;;;;;5061920;28;20051;-50
2022/10/11 09:28:55;;;;;;;19.80;3.05;;;11.60;99.90;;;;;;5071016;28;20516;-51
2022/10/11 09:31:22;;;;;;;30.00;3.50;;;11.70;99.90;;;;;;5064881;28;20043;-51
2022/10/11 09:33:51;;;;;;;15.32;3.30;;;11.90;99.90;;;;;;5071624;28;20299;-53
2022/10/11 09:36:19;;;;;;;14.07;3.00;;;12.00;99.90;;;;;;5067501;28;20044;-51
2022/10/11 09:39:08;;;;;;;10.00;2.67;;;12.10;99.90;;;;;;5070590;28;20105;-55
2022/10/11 09:41:53;;;;;;;16.02;3.15;;;;;;;;;;5067844;28;20048;-50
2022/10/11 09:44:22;;;;;;;14.70;2.85;;;12.40;99.90;;;;;;5064465;28;20422;-50
2022/10/11 09:46:49;;;;;;;11.05;2.65;;;12.40;99.90;;;;;;5069294;28;20127;-49
2022/10/11 09:49:18;;;;;;;12.40;3.00;;;12.40;99.90;;;;;;5073130;28;20433;-49
2022/10/11 09:52:04;;;;;;;11.40;2.63;;;12.50;99.90;;;;;;5057686;28;20033;-50
2022/10/11 09:54:49;;;;;;;15.43;3.00;;;12.60;99.90;;;;;;5063621;28;20085;-49
2022/10/11 09:57:21;;;;;;;12.57;2.90;;;12.70;99.90;;;;;;5064866;28;20613;-50
2022/10/11 09:59:57;;;;;;;8.70;2.63;;;12.70;99.90;;;;;;5070243;28;20044;-53
2022/10/11 10:02:25;;;;;;;11.85;3.03;;;12.80;99.90;;;;;;5062264;28;20144;-52
2022/10/11 10:04:58;;;;;;;13.13;2.70;;;12.90;99.90;;;;;;5064846;28;20052;-50
2022/10/11 10:07:24;;;;;;;9.52;2.47;;;12.80;99.90;;;;;;5065221;28;20453;-52
2022/10/11 10:09:51;;;;;;;14.52;3.50;;;12.80;99.90;;;;;;5070847;28;20036;-52
2022/10/11 10:12:23;;;;;;;11.27;3.40;;;12.90;99.90;;;;;;5058393;28;20044;-51
2022/10/11 10:15:12;;;;;;;11.63;2.85;;;13.00;99.90;;;;;;5065582;28;20048;-54
2022/10/11 10:17:38;;;;;;;12.48;2.75;;;13.20;99.90;;;;;;5070928;28;20044;-53
2022/10/11 10:20:05;;;;;;;11.52;2.55;;;13.20;99.90;;;;;;5066002;28;20037;-54
2022/10/11 10:22:33;;;;;;;9.10;2.35;;;13.30;99.90;;;;;;5062104;28;20071;-53
2022/10/11 10:25:04;;;;;;;13.50;2.53;;;13.40;99.90;;;;;;5063477;28;20043;-53
2022/10/11 10:27:31;;;;;;;10.07;2.72;;;13.50;99.90;;;;;;5069692;28;20128;-58
2022/10/11 10:30:08;;;;;;;9.07;2.13;;;13.50;99.90;;;;;;5056034;28;20094;-52
2022/10/11 10:33:02;;;;;;;9.63;2.10;;;13.60;99.90;;;;;;5068619;28;20044;-53
2022/10/11 10:35:49;;;;;;;7.78;2.15;;;13.70;99.90;;;;;;5060024;28;20037;-52
2022/10/11 10:38:36;;;;;;;11.13;1.95;;;13.90;99.90;;;;;;5062199;28;20061;-55
2022/10/11 10:41:15;;;;;;;11.20;2.47;;;14.00;99.90;;;;;;5059919;28;20036;-52
2022/10/11 10:43:44;;;;;;;9.57;2.20;;;14.10;99.90;;;;;;5067504;28;20102;-52
2022/10/11 10:46:49;;;;;;;15.77;2.20;;;14.10;99.90;;;;;;5062305;28;20075;-51
2022/10/11 10:49:21;;;;;;;9.98;2.13;;;14.30;99.90;;;;;;5060038;28;20059;-51
2022/10/11 10:52:19;;;;;;;11.30;2.63;;;14.30;99.90;;;;;;5067300;28;20681;-50
2022/10/11 10:55:06;;;;;;;10.07;2.55;;;14.40;99.90;;;;;;5068087;28;20048;-57
2022/10/11 10:57:55;;;;;;;12.18;2.85;;;14.50;99.90;;;;;;5064314;28;20051;-52
2022/10/11 11:00:22;;;;;;;14.20;2.38;;;14.60;99.90;;;;;;5064452;28;20041;-49
2022/10/11 11:03:11;;;;;;;9.02;2.20;;;14.70;99.90;;;;;;5069630;28;20135;-51
2022/10/11 11:05:54;;;;;;;6.88;2.10;;;14.70;99.90;;;;;;5063544;28;20052;-48
2022/10/11 11:08:49;;;;;;;15.63;3.55;;;14.60;99.90;;;;;;5057943;28;20044;-49
2022/10/11 11:11:23;;;;;;;10.43;2.22;;;14.60;99.90;;;;;;5064139;28;20048;-52
2022/10/11 11:14:13;;;;;;;14.05;2.97;;;14.60;99.90;;;;;;5062566;28;20040;-48
2022/10/11 11:16:54;;;;;;;8.55;2.00;;;14.70;99.90;;;;;;5064300;28;20091;-49
2022/10/11 11:19:29;;;;;;;8.50;2.10;;;14.80;99.90;;;;;;5067358;28;20048;-56
2022/10/11 11:22:14;;;;;;;12.05;2.78;;;14.80;99.90;;;;;;5064004;28;20420;-54
2022/10/11 11:24:54;;;;;;;11.07;2.28;;;14.90;99.90;;;;;;5066518;28;20090;-55
2022/10/11 11:27:39;;;;;;;11.70;2.58;;;14.90;99.90;;;;;;5065647;28;20059;-51
2022/10/11 11:30:08;;;;;;;12.20;2.25;;;15.00;99.90;;;;;;5063307;28;20175;-52
2022/10/11 11:32:45;;;;;;;11.00;1.95;;;15.10;99.90;;;;;;5062102;28;20055;-53
2022/10/11 11:35:24;;;;;;;11.88;2.38;;;15.10;99.90;;;;;;5063209;28;20036;-56
2022/10/11 11:37:53;;;;;;;11.95;2.42;;;15.20;99.90;;;;;;5066023;28;20044;-56
2022/10/11 11:40:36;;;;;;;12.93;2.25;;;15.30;99.90;;;;;;5066190;28;20094;-55
2022/10/11 11:43:20;;;;;;;11.48;2.60;;;15.40;99.90;;;;;;5064703;28;20402;-55
2022/10/11 11:45:56;;;;;;;10.25;2.08;;;15.30;99.90;;;;;;5064726;28;20045;-55
2022/10/11 11:48:24;;;;;;;10.87;2.50;;;15.40;99.90;;;;;;5066336;28;20059;-55
2022/10/11 11:51:14;;;;;;;10.73;2.10;;;15.60;99.90;;;;;;5059742;28;20295;-56
2022/10/11 11:53:58;;;;;;;10.45;2.45;;;15.60;99.90;;;;;;5064965;28;20041;-56
2022/10/11 11:56:50;;;;;;;14.82;2.30;;;15.50;99.90;;;;;;5063561;28;20486;-56
2022/10/11 11:59:20;;;;;;;9.15;2.20;;;15.40;99.90;;;;;;5063746;28;20043;-56
2022/10/11 12:01:58;;;;;;;14.88;3.35;;;15.40;99.90;;;;;;5065003;28;20067;-56
2022/10/11 12:04:29;;;;;;;12.43;2.47;;;15.50;99.90;;;;;;5065540;28;20117;-55
2022/10/11 12:07:07;;;;;;;11.52;2.42;;;15.50;99.90;;;;;;5066718;28;20105;-55
2022/10/11 12:09:33;;;;;;;;;;;15.50;99.90;;;;;;5056637;28;20041;-56
2022/10/11 12:12:06;;;;;;;11.60;2.58;;;15.60;99.90;;;;;;5059610;28;19942;-55
2022/10/11 12:14:32;;;;;;;9.27;1.55;;;15.70;99.90;;;;;;5059282;28;20032;-55
2022/10/11 12:17:16;;;;;;;10.02;2.60;;;15.70;99.90;;;;;;5063699;28;20040;-56
2022/10/11 12:20:08;;;;;;;10.20;2.28;;;15.70;99.90;;;;;;5065940;28;20048;-53
2022/10/11 12:22:36;;;;;;;11.02;2.83;;;16.00;99.90;;;;;;5060693;28;20064;-54
2022/10/11 12:25:08;;;;;;;11.35;2.05;;;16.20;99.90;;;;;;5062340;28;20448;-55
2022/10/11 12:27:50;;;;;;;15.45;2.75;;;16.30;99.90;;;;;;5062621;28;20123;-56
2022/10/11 12:30:46;;;;;;;11.77;2.28;;;16.20;99.90;;;;;;5062617;28;20802;-55
2022/10/11 12:33:20;;;;;;;6.53;1.83;;;16.20;99.90;;;;;;5059393;28;20041;-55
2022/10/11 12:35:52;;;;;;;9.85;2.38;;;16.40;99.90;;;;;;5066406;28;20052;-56
2022/10/11 12:38:23;;;;;;;10.07;2.45;;;16.50;99.90;;;;;;5065145;28;20135;-56
2022/10/11 12:40:53;;;;;;;10.82;2.30;;;16.40;99.90;;;;;;5058896;28;20048;-55
2022/10/11 12:43:29;;;;;;;10.30;2.17;;;16.20;99.90;;;;;;5065025;28;20452;-55
2022/10/11 12:45:54;;;;;;;11.70;2.75;;;16.20;99.90;;;;;;5062051;28;20047;-55
2022/10/11 12:48:38;;;;;;;11.63;2.20;;;16.20;99.90;;;;;;5058899;28;20048;-56
2022/10/11 12:51:16;;;;;;;10.00;2.20;;;16.10;99.90;;;;;;5063071;28;20041;-55
2022/10/11 12:54:03;;;;;;;7.10;1.70;;;15.80;99.90;;;;;;5062946;28;20541;-55
2022/10/11 12:57:10;;;;;;;7.13;1.63;;;15.50;99.90;;;;;;5063128;28;20513;-57
2022/10/11 12:59:43;;;;;;;8.23;1.90;;;15.30;99.90;;;;;;5059828;28;20056;-55
2022/10/11 13:02:34;;;;;;;12.65;2.45;;;15.10;99.90;;;;;;5069517;28;20055;-55
2022/10/11 13:05:25;;;;;;;7.13;2.10;;;15.30;99.90;;;;;;5063498;28;20439;-54
2022/10/11 13:07:54;;;;;;;8.32;1.90;;;15.40;99.90;;;;;;5056851;28;20048;-54
2022/10/11 13:10:33;;;;;;;9.98;2.15;;;15.50;99.90;;;;;;5058604;28;20044;-54
2022/10/11 13:13:03;;;;;;;11.63;1.85;;;15.70;99.90;;;;;;5057818;28;20048;-54